createdAt,value
2018-07-09T00:00:42.622Z,3.00
2018-07-09T00:03:15.906Z,2.87
2018-07-09T00:05:51.368Z,2.73
2018-07-09T00:08:26.771Z,2.60
2018-07-09T00:11:07.617Z,3.07
2018-07-09T00:13:43.651Z,2.70
2018-07-09T00:16:16.778Z,3.00
2018-07-09T00:18:50.769Z,2.60
2018-07-09T00:21:24.378Z,2.80
2018-07-09T00:23:56.936Z,2.60
2018-07-09T00:26:31.370Z,2.53
2018-07-09T00:29:05.782Z,3.10
2018-07-09T00:31:41.804Z,3.23
2018-07-09T00:34:17.449Z,2.97
2018-07-09T00:36:50.305Z,3.00
2018-07-09T00:39:25.188Z,2.80
2018-07-09T00:42:00.437Z,3.40
2018-07-09T00:44:34.389Z,3.00
2018-07-09T00:47:08.827Z,3.00
2018-07-09T00:49:44.730Z,3.60
2018-07-09T00:52:19.160Z,2.93
2018-07-09T00:54:53.557Z,3.00
2018-07-09T00:57:27.134Z,3.43
2018-07-09T01:00:01.079Z,3.70
2018-07-09T01:02:36.729Z,3.43
2018-07-09T01:05:09.983Z,4.30
2018-07-09T01:07:46.946Z,3.57
2018-07-09T01:10:19.607Z,3.60
2018-07-09T01:12:57.604Z,3.23
2018-07-09T01:15:30.089Z,3.70
2018-07-09T01:18:04.249Z,3.10
2018-07-09T01:20:40.046Z,3.40
2018-07-09T01:23:14.060Z,3.30
2018-07-09T01:25:46.462Z,3.60
2018-07-09T01:28:19.343Z,3.67
2018-07-09T01:30:53.162Z,3.63
2018-07-09T01:33:26.654Z,4.33
2018-07-09T01:36:01.550Z,4.30
2018-07-09T01:38:34.983Z,3.60
2018-07-09T01:41:07.527Z,3.57
2018-07-09T01:43:40.332Z,3.07
2018-07-09T01:46:14.446Z,3.50
2018-07-09T01:48:47.001Z,3.92
2018-07-09T01:51:22.041Z,3.93
2018-07-09T01:53:55.422Z,4.13
2018-07-09T01:56:28.053Z,3.87
2018-07-09T01:59:01.293Z,3.73
2018-07-09T02:01:34.038Z,3.87
2018-07-09T02:04:07.069Z,3.60
2018-07-09T02:06:40.058Z,4.07
2018-07-09T02:09:20.787Z,3.67
2018-07-09T02:11:55.579Z,3.80
2018-07-09T02:14:34.290Z,3.80
2018-07-09T02:17:06.923Z,3.83
2018-07-09T02:19:40.825Z,4.00
2018-07-09T02:22:15.690Z,3.83
2018-07-09T02:24:49.137Z,4.30
2018-07-09T02:27:23.003Z,4.17
2018-07-09T02:29:55.921Z,4.37
2018-07-09T02:32:29.487Z,4.60
2018-07-09T02:35:01.957Z,4.80
2018-07-09T02:37:36.698Z,5.17
2018-07-09T02:40:10.031Z,4.10
2018-07-09T02:42:43.632Z,4.20
2018-07-09T02:45:17.332Z,4.53
2018-07-09T02:47:51.562Z,5.07
2018-07-09T02:50:25.923Z,5.17
2018-07-09T02:52:59.522Z,4.53
2018-07-09T02:55:32.134Z,5.00
2018-07-09T02:58:08.389Z,5.30
2018-07-09T03:00:42.481Z,4.50
2018-07-09T03:03:15.026Z,5.20
2018-07-09T03:05:47.553Z,5.30
2018-07-09T03:08:21.345Z,5.03
2018-07-09T03:10:53.910Z,5.23
2018-07-09T03:13:27.410Z,5.80
2018-07-09T03:16:01.373Z,4.90
2018-07-09T03:18:34.063Z,5.40
2018-07-09T03:21:08.312Z,5.83
2018-07-09T03:23:42.011Z,5.73
2018-07-09T03:26:14.556Z,6.80
2018-07-09T03:28:47.098Z,6.20
2018-07-09T03:31:21.509Z,5.90
2018-07-09T03:33:54.175Z,6.30
2018-07-09T03:36:26.788Z,6.67
2018-07-09T03:38:59.774Z,5.83
2018-07-09T03:41:32.110Z,6.30
2018-07-09T03:44:04.914Z,6.10
2018-07-09T03:46:38.853Z,5.50
2018-07-09T03:49:12.194Z,5.93
2018-07-09T03:51:45.083Z,6.53
2018-07-09T03:54:19.425Z,6.43
2018-07-09T03:56:55.358Z,6.65
2018-07-09T03:59:27.902Z,6.27
2018-07-09T04:02:02.958Z,6.30
2018-07-09T04:04:35.401Z,6.30
2018-07-09T04:07:08.084Z,6.20
2018-07-09T04:09:42.125Z,5.50
2018-07-09T04:12:14.834Z,6.27
2018-07-09T04:14:48.312Z,6.67
2018-07-09T04:17:22.212Z,7.30
2018-07-09T04:19:55.971Z,6.85
2018-07-09T04:22:28.327Z,6.00
2018-07-09T04:25:01.418Z,6.97
2018-07-09T04:27:33.953Z,6.70
2018-07-09T04:30:06.749Z,6.70
2018-07-09T04:32:40.859Z,6.30
2018-07-09T04:35:13.573Z,6.50
2018-07-09T04:37:46.111Z,6.60
2018-07-09T04:40:19.205Z,6.63
2018-07-09T04:42:51.737Z,6.23
2018-07-09T04:45:24.185Z,6.53
2018-07-09T04:47:57.006Z,5.87
2018-07-09T04:50:29.408Z,6.70
2018-07-09T04:53:04.350Z,6.37
2018-07-09T04:55:37.341Z,6.80
2018-07-09T04:58:09.773Z,6.37
2018-07-09T05:00:43.821Z,5.80
2018-07-09T05:03:16.440Z,5.67
2018-07-09T05:05:50.657Z,6.40
2018-07-09T05:08:23.186Z,5.80
2018-07-09T05:10:56.070Z,5.63
2018-07-09T05:13:28.496Z,6.07
2018-07-09T05:16:02.305Z,6.23
2018-07-09T05:18:35.213Z,5.97
2018-07-09T05:21:08.049Z,5.57
2018-07-09T05:23:41.408Z,5.73
2018-07-09T05:26:14.211Z,5.30
2018-07-09T05:28:47.724Z,5.53
2018-07-09T05:31:20.412Z,5.60
2018-07-09T05:33:53.107Z,5.77
2018-07-09T05:36:25.581Z,5.60
2018-07-09T05:38:59.712Z,5.30
2018-07-09T05:41:32.745Z,5.67
2018-07-09T05:44:05.226Z,6.00
2018-07-09T05:46:38.396Z,5.70
2018-07-09T05:49:12.150Z,6.10
2018-07-09T05:51:45.214Z,5.53
2018-07-09T05:54:18.056Z,6.03
2018-07-09T05:56:51.798Z,5.07
2018-07-09T05:59:25.896Z,5.73
2018-07-09T06:01:59.077Z,5.87
2018-07-09T06:04:31.643Z,5.73
2018-07-09T06:07:06.612Z,5.60
2018-07-09T06:09:40.484Z,5.83
2018-07-09T06:12:13.297Z,5.40
2018-07-09T06:14:46.765Z,5.07
2018-07-09T06:17:19.502Z,4.53
2018-07-09T06:19:54.956Z,5.27
2018-07-09T06:22:34.369Z,4.40
2018-07-09T06:25:07.140Z,4.37
2018-07-09T06:27:39.596Z,4.13
2018-07-09T06:30:14.247Z,3.47
2018-07-09T06:32:47.916Z,3.73
2018-07-09T06:35:22.115Z,3.60
2018-07-09T06:37:54.657Z,3.70
2018-07-09T06:40:30.122Z,3.57
2018-07-09T06:43:02.735Z,3.70
2018-07-09T06:45:35.299Z,3.30
2018-07-09T06:48:08.201Z,3.13
2018-07-09T06:50:42.050Z,2.97
2018-07-09T06:53:14.631Z,3.33
2018-07-09T06:55:47.686Z,2.83
2018-07-09T06:58:22.166Z,2.43
2018-07-09T07:00:54.686Z,2.60
2018-07-09T07:03:31.734Z,2.27
2018-07-09T07:06:07.178Z,2.70
2018-07-09T07:08:40.713Z,2.33
2018-07-09T07:11:14.333Z,2.13
2018-07-09T07:13:48.141Z,2.10
2018-07-09T07:16:21.041Z,2.53
2018-07-09T07:18:54.789Z,2.62
2018-07-09T07:21:28.813Z,2.10
2018-07-09T07:24:04.502Z,2.13
2018-07-09T07:26:38.129Z,2.45
2018-07-09T07:29:10.690Z,2.97
2018-07-09T07:31:43.164Z,2.13
2018-07-09T07:34:18.953Z,2.40
2018-07-09T07:36:53.132Z,2.23
2018-07-09T07:39:25.713Z,2.17
2018-07-09T07:42:00.918Z,2.47
2018-07-09T07:44:33.468Z,2.33
2018-07-09T07:47:06.729Z,1.90
2018-07-09T07:49:39.949Z,2.07
2018-07-09T07:52:12.561Z,1.80
2018-07-09T07:54:46.477Z,2.00
2018-07-09T07:57:21.741Z,2.03
2018-07-09T07:59:58.909Z,1.70
2018-07-09T08:02:31.910Z,2.00
2018-07-09T08:05:05.157Z,2.03
2018-07-09T08:07:38.112Z,2.17
2018-07-09T08:10:13.793Z,2.20
2018-07-09T08:13:27.165Z,2.00
2018-07-09T08:15:37.297Z,2.13
2018-07-09T08:18:10.584Z,2.03
2018-07-09T08:20:45.631Z,2.43
2018-07-09T08:23:19.839Z,2.17
2018-07-09T08:25:56.806Z,2.40
2018-07-09T08:28:29.488Z,2.20
2018-07-09T08:31:01.834Z,2.60
2018-07-09T08:33:36.499Z,2.33
2018-07-09T08:36:10.048Z,2.60
2018-07-09T08:38:42.793Z,2.70
2018-07-09T08:41:17.325Z,2.87
2018-07-09T08:43:50.637Z,2.83
2018-07-09T08:46:23.791Z,2.50
2018-07-09T08:48:57.648Z,2.70
2018-07-09T08:51:30.350Z,2.83
2018-07-09T08:54:10.181Z,2.70
2018-07-09T08:56:44.313Z,2.50
2018-07-09T08:59:17.613Z,2.90
2018-07-09T09:01:51.112Z,2.80
2018-07-09T09:04:24.589Z,2.60
2018-07-09T09:06:57.139Z,2.40
2018-07-09T09:09:31.341Z,2.77
2018-07-09T09:12:08.552Z,2.50
2018-07-09T09:14:43.185Z,2.40
2018-07-09T09:17:16.778Z,2.70
2018-07-09T09:19:50.555Z,2.60
2018-07-09T09:22:25.370Z,2.43
2018-07-09T09:24:58.126Z,2.23
2018-07-09T09:27:33.382Z,2.23
2018-07-09T09:30:09.511Z,2.20
2018-07-09T09:32:43.345Z,2.20
2018-07-09T09:35:16.273Z,2.12
2018-07-09T09:37:52.338Z,2.00
2018-07-09T09:40:27.141Z,2.10
2018-07-09T09:43:07.880Z,2.30
2018-07-09T09:45:40.913Z,2.00
2018-07-09T09:48:14.329Z,2.23
2018-07-09T09:50:48.632Z,2.43
2018-07-09T09:53:21.661Z,2.23
2018-07-09T09:55:57.917Z,1.97
2018-07-09T09:58:33.908Z,2.10
2018-07-09T10:01:13.844Z,2.00
2018-07-09T10:03:47.794Z,2.10
2018-07-09T10:06:21.722Z,2.27
2018-07-09T10:08:56.268Z,2.10
2018-07-09T10:11:35.677Z,1.80
2018-07-09T10:14:09.215Z,1.80
2018-07-09T10:16:42.726Z,2.27
2018-07-09T10:19:15.445Z,1.77
2018-07-09T10:21:49.164Z,2.60
2018-07-09T10:24:23.373Z,2.40
2018-07-09T10:26:59.824Z,2.00
2018-07-09T10:29:33.599Z,2.03
2018-07-09T10:32:08.557Z,2.37
2018-07-09T10:34:42.039Z,2.60
2018-07-09T10:37:16.745Z,2.83
2018-07-09T10:39:53.025Z,2.60
2018-07-09T10:42:26.476Z,3.00
2018-07-09T10:45:06.704Z,2.70
2018-07-09T10:47:44.709Z,2.70
2018-07-09T10:50:20.754Z,2.50
2018-07-09T10:52:53.939Z,2.40
2018-07-09T10:55:34.549Z,2.70
2018-07-09T10:58:13.214Z,2.43
2018-07-09T11:00:47.184Z,2.20
2018-07-09T11:03:21.382Z,2.30
2018-07-09T11:05:56.433Z,2.20
2018-07-09T11:08:31.125Z,2.10
2018-07-09T11:11:04.268Z,2.53
2018-07-09T11:13:40.070Z,2.70
2018-07-09T11:16:15.049Z,2.67
2018-07-09T11:18:49.810Z,2.75
2018-07-09T11:21:23.611Z,2.53
2018-07-09T11:23:59.255Z,2.20
2018-07-09T11:26:32.641Z,2.20
2018-07-09T11:29:07.699Z,2.10
2018-07-09T11:31:42.058Z,2.80
2018-07-09T11:34:15.777Z,2.30
2018-07-09T11:36:50.313Z,2.43
2018-07-09T11:39:26.736Z,2.20
2018-07-09T11:42:01.847Z,2.28
2018-07-09T11:44:36.219Z,2.10
2018-07-09T11:47:09.650Z,2.23
2018-07-09T11:49:42.980Z,2.80
2018-07-09T11:52:19.006Z,2.70
2018-07-09T11:54:52.165Z,2.47
2018-07-09T11:57:24.868Z,2.30
2018-07-09T11:59:59.952Z,2.47
2018-07-09T12:02:34.318Z,2.30
2018-07-09T12:05:09.150Z,2.20
2018-07-09T12:07:43.130Z,2.30
2018-07-09T12:10:16.329Z,2.30
2018-07-09T12:12:52.328Z,2.33
2018-07-09T12:15:29.963Z,2.03
2018-07-09T12:18:04.986Z,2.10
2018-07-09T12:20:39.532Z,2.10
2018-07-09T12:23:11.950Z,2.10
2018-07-09T12:25:46.261Z,2.43
2018-07-09T12:28:19.158Z,2.63
2018-07-09T12:30:55.480Z,2.50
2018-07-09T12:33:28.225Z,2.43
2018-07-09T12:36:04.316Z,2.50
2018-07-09T12:38:38.292Z,2.20
2018-07-09T12:41:10.894Z,2.30
2018-07-09T12:43:45.991Z,2.23
2018-07-09T12:46:20.439Z,2.10
2018-07-09T12:48:53.035Z,1.60
2018-07-09T12:51:26.989Z,2.00
2018-07-09T12:53:59.933Z,1.80
2018-07-09T12:56:37.278Z,1.50
2018-07-09T12:59:12.033Z,2.00
2018-07-09T13:01:46.726Z,1.70
2018-07-09T13:04:20.656Z,1.50
2018-07-09T13:06:55.270Z,2.10
2018-07-09T13:09:28.430Z,2.20
2018-07-09T13:12:02.707Z,1.90
2018-07-09T13:14:41.767Z,2.20
2018-07-09T13:17:18.591Z,1.87
2018-07-09T13:19:54.753Z,1.80
2018-07-09T13:22:30.905Z,2.10
2018-07-09T13:25:03.545Z,2.20
2018-07-09T13:27:38.574Z,1.90
2018-07-09T13:30:14.627Z,1.90
2018-07-09T13:32:48.357Z,2.03
2018-07-09T13:35:22.620Z,1.93
2018-07-09T13:37:55.803Z,1.73
2018-07-09T13:40:33.298Z,1.60
2018-07-09T13:43:08.108Z,1.80
2018-07-09T13:45:41.323Z,1.50
2018-07-09T13:48:16.048Z,1.90
2018-07-09T13:50:55.922Z,1.90
2018-07-09T13:53:39.716Z,2.10
2018-07-09T13:56:17.193Z,1.80
2018-07-09T13:58:53.068Z,1.57
2018-07-09T14:01:27.844Z,1.57
2018-07-09T14:07:04.970Z,1.80
2018-07-09T14:09:37.441Z,1.80
2018-07-09T14:12:11.971Z,2.17
2018-07-09T14:14:47.044Z,1.83
2018-07-09T14:17:20.043Z,2.37
2018-07-09T14:20:30.409Z,2.20
2018-07-09T14:23:06.425Z,2.17
2018-07-09T14:25:39.629Z,2.33
2018-07-09T14:28:12.678Z,1.80
2018-07-09T14:30:46.789Z,2.03
2018-07-09T14:33:19.503Z,1.97
2018-07-09T14:35:52.544Z,2.13
2018-07-09T14:38:37.692Z,1.80
2018-07-09T14:41:12.391Z,1.80
2018-07-09T14:43:45.277Z,1.90
2018-07-09T14:46:20.882Z,1.83
2018-07-09T14:48:55.649Z,2.40
2018-07-09T14:51:32.501Z,1.77
2018-07-09T14:54:07.262Z,1.70
2018-07-09T14:56:41.470Z,2.07
2018-07-09T14:59:17.859Z,2.10
2018-07-09T15:01:51.381Z,1.70
2018-07-09T15:04:33.842Z,1.87
2018-07-09T15:07:10.831Z,2.10
2018-07-09T15:09:44.950Z,2.00
2018-07-09T15:12:19.348Z,2.70
2018-07-09T15:14:53.998Z,2.73
2018-07-09T15:17:27.406Z,2.40
2018-07-09T15:20:01.786Z,3.10
2018-07-09T15:22:34.365Z,2.60
2018-07-09T15:25:08.066Z,2.60
2018-07-09T15:27:41.781Z,2.37
2018-07-09T15:30:17.781Z,2.60
2018-07-09T15:32:51.130Z,2.53
2018-07-09T15:35:31.698Z,2.53
2018-07-09T15:38:14.701Z,2.37
2018-07-09T15:40:55.746Z,3.00
2018-07-09T15:43:52.331Z,2.07
2018-07-09T15:46:37.293Z,2.00
2018-07-09T15:49:21.521Z,1.80
2018-07-09T15:52:19.339Z,2.00
2018-07-09T15:55:01.370Z,2.22
2018-07-09T15:57:46.008Z,2.00
2018-07-09T16:00:25.443Z,1.87
2018-07-09T16:03:14.703Z,1.87
2018-07-09T16:05:57.720Z,1.50
2018-07-09T16:08:40.662Z,1.43
2018-07-09T16:11:25.517Z,1.57
2018-07-09T16:14:11.505Z,1.50
2018-07-09T16:16:53.528Z,1.37
2018-07-09T16:19:36.537Z,1.30
2018-07-09T16:22:20.188Z,1.33
2018-07-09T16:25:02.725Z,1.37
2018-07-09T16:27:42.534Z,1.50
2018-07-09T16:30:25.562Z,1.10
2018-07-09T16:33:12.765Z,1.40
2018-07-09T16:35:48.311Z,2.07
2018-07-09T16:38:23.817Z,1.90
2018-07-09T16:40:58.049Z,1.60
2018-07-09T16:43:34.523Z,1.80
2018-07-09T16:46:08.587Z,1.50
2018-07-09T16:48:42.650Z,1.77
2018-07-09T16:51:16.719Z,1.17
2018-07-09T16:53:52.769Z,1.50
2018-07-09T16:56:26.663Z,1.50
2018-07-09T16:59:01.249Z,1.50
2018-07-09T17:01:33.927Z,1.40
2018-07-09T17:04:09.794Z,1.60
2018-07-09T17:06:44.981Z,1.40
2018-07-09T17:09:21.713Z,1.27
2018-07-09T17:11:59.653Z,1.20
2018-07-09T17:14:34.711Z,1.50
2018-07-09T17:17:19.266Z,1.40
2018-07-09T17:19:54.689Z,1.63
2018-07-09T17:22:30.702Z,1.70
2018-07-09T17:25:05.709Z,1.73
2018-07-09T17:27:40.503Z,1.43
2018-07-09T17:30:19.091Z,1.53
2018-07-09T17:32:54.777Z,1.83
2018-07-09T17:35:31.068Z,2.00
2018-07-09T17:38:08.421Z,1.90
2018-07-09T17:40:44.520Z,1.93
2018-07-09T17:43:18.370Z,2.00
2018-07-09T17:45:55.725Z,2.70
2018-07-09T17:48:30.368Z,3.03
2018-07-09T17:51:04.168Z,2.17
2018-07-09T17:53:38.832Z,2.07
2018-07-09T17:56:15.427Z,2.17
2018-07-09T17:58:49.352Z,2.30
2018-07-09T18:01:24.621Z,2.22
2018-07-09T18:03:59.434Z,2.20
2018-07-09T18:06:32.999Z,1.70
2018-07-09T18:09:10.447Z,2.13
2018-07-09T18:11:47.020Z,2.30
2018-07-09T18:14:23.229Z,2.10
2018-07-09T18:16:59.673Z,2.30
2018-07-09T18:19:52.325Z,2.03
2018-07-09T18:22:35.730Z,2.27
2018-07-09T18:25:18.940Z,1.90
2018-07-09T18:27:59.283Z,1.95
2018-07-09T18:30:40.025Z,2.10
2018-07-09T18:33:20.166Z,1.77
2018-07-09T18:35:55.408Z,1.93
2018-07-09T18:38:30.843Z,2.13
2018-07-09T18:41:22.517Z,2.20
2018-07-09T18:43:56.867Z,2.30
2018-07-09T18:46:33.792Z,2.50
2018-07-09T18:49:09.570Z,2.50
2018-07-09T18:51:44.518Z,2.50
2018-07-09T18:54:18.086Z,2.83
2018-07-09T18:56:51.137Z,2.97
2018-07-09T18:59:26.598Z,2.30
2018-07-09T19:02:02.921Z,2.50
2018-07-09T19:04:39.257Z,2.80
2018-07-09T19:07:21.670Z,2.83
2018-07-09T19:10:13.677Z,3.10
2018-07-09T19:12:49.717Z,3.00
2018-07-09T19:15:27.184Z,2.87
2018-07-09T19:18:29.353Z,2.80
2018-07-09T19:21:40.056Z,2.83
2018-07-09T19:24:12.239Z,3.20
2018-07-09T19:26:42.708Z,2.80
2018-07-09T19:29:17.429Z,2.60
2018-07-09T19:31:49.516Z,3.10
2018-07-09T19:34:22.454Z,3.30
2018-07-09T19:36:52.753Z,3.47
2018-07-09T19:39:25.572Z,2.47
2018-07-09T19:41:57.150Z,3.05
2018-07-09T19:44:27.543Z,3.47
2018-07-09T19:47:01.597Z,3.30
2018-07-09T19:49:35.346Z,3.37
2018-07-09T19:52:06.884Z,3.20
2018-07-09T19:54:38.768Z,3.70
2018-07-09T19:57:11.641Z,3.97
2018-07-09T19:59:43.368Z,4.10
2018-07-09T20:02:15.554Z,4.33
2018-07-09T20:04:48.546Z,4.10
2018-07-09T20:07:21.553Z,4.00
2018-07-09T20:09:57.814Z,6.03
2018-07-09T20:12:37.792Z,3.80
2018-07-09T20:15:19.139Z,6.68
2018-07-09T20:17:50.368Z,4.10
2018-07-09T20:20:21.581Z,3.93
2018-07-09T20:22:52.966Z,3.60
2018-07-09T20:25:25.681Z,3.80
2018-07-09T20:28:12.011Z,4.15
2018-07-09T20:30:49.545Z,3.57
2018-07-09T20:33:20.205Z,3.80
2018-07-09T20:35:55.382Z,3.77
2018-07-09T20:38:40.196Z,4.00
2018-07-09T20:41:11.562Z,4.03
2018-07-09T20:43:45.731Z,4.10
2018-07-09T20:46:17.697Z,4.17
2018-07-09T20:48:51.840Z,4.07
2018-07-09T20:51:22.690Z,4.30
2018-07-09T20:53:54.918Z,4.00
2018-07-09T20:56:27.865Z,4.62
2018-07-09T20:58:59.965Z,4.15
2018-07-09T21:01:40.399Z,3.63
2018-07-09T21:04:16.841Z,4.20
2018-07-09T21:06:49.394Z,6.00
2018-07-09T21:09:24.093Z,7.60
2018-07-09T21:12:04.938Z,7.22
2018-07-09T21:14:37.127Z,6.90
2018-07-09T21:17:11.580Z,6.90
2018-07-09T21:19:44.959Z,6.57
2018-07-09T21:22:15.722Z,5.47
2018-07-09T21:24:50.326Z,5.30
2018-07-09T21:27:20.462Z,4.50
2018-07-09T21:29:54.342Z,4.83
2018-07-09T21:32:26.190Z,5.10
2018-07-09T21:35:00.717Z,4.62
2018-07-09T21:37:33.713Z,5.10
2018-07-09T21:40:03.942Z,5.30
2018-07-09T21:42:40.201Z,5.47
2018-07-09T21:45:18.125Z,5.82
2018-07-09T21:47:59.210Z,4.87
2018-07-09T21:50:19.372Z,4.40
2018-07-09T21:52:50.546Z,4.30
2018-07-09T21:55:20.633Z,4.60
2018-07-09T21:57:51.877Z,4.13
2018-07-09T22:00:38.633Z,5.28
2018-07-09T22:03:09.862Z,4.17
2018-07-09T22:05:41.649Z,3.97
2018-07-09T22:08:14.001Z,3.30
2018-07-09T22:10:44.868Z,2.83
2018-07-09T22:13:15.666Z,2.97
2018-07-09T22:15:46.309Z,2.87
2018-07-09T22:18:17.174Z,2.90
2018-07-09T22:20:47.475Z,3.20
2018-07-09T22:23:17.952Z,2.90
2018-07-09T22:25:49.929Z,3.40
2018-07-09T22:28:22.312Z,3.50
2018-07-09T22:31:02.521Z,3.90
2018-07-09T22:33:40.586Z,3.70
2018-07-09T22:36:15.173Z,3.80
2018-07-09T22:38:48.159Z,3.10
2018-07-09T22:41:22.794Z,3.30
2018-07-09T22:44:15.379Z,3.45
2018-07-09T22:46:49.875Z,3.93
2018-07-09T22:49:29.126Z,3.50
2018-07-09T22:52:04.129Z,3.73
2018-07-09T22:54:39.847Z,3.70
2018-07-09T22:57:13.018Z,3.83
2018-07-09T22:59:47.738Z,2.70
2018-07-09T23:02:22.485Z,2.40
2018-07-09T23:04:55.941Z,2.60
2018-07-09T23:07:30.785Z,2.50
2018-07-09T23:10:58.638Z,2.17
2018-07-09T23:14:29.981Z,2.40
2018-07-09T23:17:36.163Z,2.30
2018-07-09T23:21:05.473Z,2.30
2018-07-09T23:23:40.790Z,1.97
2018-07-09T23:26:12.041Z,2.47
2018-07-09T23:28:46.946Z,2.43
2018-07-09T23:31:22.448Z,2.87
2018-07-09T23:33:55.748Z,2.47
2018-07-09T23:36:29.903Z,2.60
2018-07-09T23:39:00.544Z,2.60
2018-07-09T23:41:31.242Z,3.50
2018-07-09T23:44:03.591Z,3.07
2018-07-09T23:46:34.835Z,3.20
2018-07-09T23:49:06.813Z,3.00
2018-07-09T23:51:37.813Z,3.47
2018-07-09T23:54:08.667Z,3.40
2018-07-09T23:57:52.644Z,3.00
